CheckWX is a tool to help pilots better visualize weather data.  It is not intended as a substitute for an official pre-flight weather briefing.

05:37:35 UTC

EGGP TAF
Liverpool John Lennon Airport
Liverpool, United Kingdom
TAF EGGP 222255Z 2300/2324 21005KT 9999 FEW045 BECMG 2311/2314 30012KT

May-23@
00:00 UTC

May-23 @ 00:00 UTC

May-23@
11:00 UTC

May-23 @ 11:00 UTC

TAF EGGP 222255Z 2300/2324 21005KT 9999 FEW045
Wind
  • 210° at 5 KTS
Cloud Levels
  • Few at 4,500' AGL

May-23@
11:00 UTC

May-23 @ 11:00 UTC

May-24@
00:00 UTC

May-24 @ 00:00 UTC

BECMG 2311/2314 30012KT

Becoming

Becoming Conditions expected by Thu, May 23, 2019 @ 14:00 UTC

Wind
  • 300° at 12 KTS
Cloud Levels
  • Few at 4,500' AGL